Aérodrome :
LOGIN :

S'inscrire | Disclaimer

   EN    FR    IT 

 










Légende :    VFR   VFR Marginal   IFR   IFR Intensif   IFR Très Intensif
Visi : 
Plafond : 
>= 8 km
>= 3000ft
5 à 8 km
1000 à 3000 ft
1500m à 5 km
500 à 1000 ft
800 à 1500m
200 à 500 ft
< 800m
< 200 ft
Symboles :   Orages  Brouillard  Fortes neiges  Fortes précipitations  Vent > 20 kt
SIGMETs :   Divers  Orages  Givrage  Turbulence  Onde Orograph.  Cendres Volcan.







- Altitude de l'aérodrome : 616 ft
- Code IATA : PUF
- Voir les cartes d'approche


LFBP - Pau

DERNIER METAR :
  • 250000Z AUTO 26009KT 9999 BKN010 14/13 Q1019 NOSIG

METARs EXPIRÉS :
  • 242330Z AUTO 27012KT 9999 OVC009 15/13 Q1019 NOSIG
  • 242300Z AUTO 27008KT 9999 OVC009 15/13 Q1019 TEMPO 4000 BR BKN011
  • 242230Z AUTO 28009KT 9999 BKN009 15/13 Q1019 TEMPO 4000 BR BKN011
  • 242200Z AUTO 27007KT 9999 FEW009 16/14 Q1018 BECMG BKN011
  • 242130Z AUTO 27009KT CAVOK 17/14 Q1018 BECMG BKN011

TAF TAF LFBP
Valide du 25 à 00h jusqu'au 26 à 00h UTC


242300Z 2500/2524 28005KT 9999 BKN020
TEMPO 2500/2512 BKN008
PROB30
TEMPO 2514/2518 3500 -DZ BKN005
Pas de NOTAMs connus pour ce terrain.



MET'MAP, la Météo Aéronautique d'un coup d'oeil ! - Copyright ORBIFLY Décembre 2007 - Disclaimer

ORBIFLY MET'MAP TEAM :

Programmation & Développement : Alexandra Zaïnal
Conception & Développement : Baudouin d'Aumeries
Co-Programmation & Développement : Marc-Olivier Méhu
Soutien technique & logistique : Manuel Goepfert

Contact : metmap@orbifly.com




SOURCES & CREDITS :

   NOAA